createdAt,value
2018-08-22T00:02:00.253Z,12.87
2018-08-22T00:04:29.109Z,12.82
2018-08-22T00:06:58.964Z,12.76
2018-08-22T00:09:28.559Z,12.70
2018-08-22T00:11:57.722Z,12.60
2018-08-22T00:14:26.897Z,12.56
2018-08-22T00:16:55.993Z,12.52
2018-08-22T00:19:25.517Z,12.48
2018-08-22T00:21:55.844Z,12.45
2018-08-22T00:24:25.952Z,12.40
2018-08-22T00:26:56.338Z,12.30
2018-08-22T00:29:26.182Z,12.22
2018-08-22T00:31:55.140Z,12.14
2018-08-22T00:34:27.523Z,12.07
2018-08-22T00:36:57.273Z,12.00
2018-08-22T00:39:28.149Z,11.96
2018-08-22T00:41:57.599Z,11.93
2018-08-22T00:44:27.550Z,11.90
2018-08-22T00:46:56.962Z,11.87
2018-08-22T00:49:26.495Z,11.84
2018-08-22T00:51:56.260Z,11.78
2018-08-22T00:54:26.272Z,11.75
2018-08-22T00:56:56.131Z,11.68
2018-08-22T00:59:25.088Z,11.64
2018-08-22T01:01:54.224Z,11.59
2018-08-22T01:04:23.028Z,11.55
2018-08-22T01:06:51.765Z,11.50
2018-08-22T01:09:20.643Z,11.46
2018-08-22T01:14:42.683Z,11.36
2018-08-22T01:17:11.501Z,11.33
2018-08-22T01:19:40.659Z,11.30
2018-08-22T01:22:10.016Z,11.29
2018-08-22T01:24:38.771Z,11.28
2018-08-22T01:27:08.127Z,11.25
2018-08-22T01:29:37.363Z,11.23
2018-08-22T01:32:06.138Z,11.19
2018-08-22T01:34:35.450Z,11.17
2018-08-22T01:37:04.257Z,11.17
2018-08-22T01:39:32.995Z,11.16
2018-08-22T01:42:02.768Z,11.16
2018-08-22T01:44:31.927Z,11.15
2018-08-22T01:47:00.868Z,11.16
2018-08-22T01:49:29.611Z,11.19
2018-08-22T01:51:58.965Z,11.22
2018-08-22T01:54:28.740Z,11.23
2018-08-22T01:56:59.047Z,11.25
2018-08-22T01:59:28.158Z,11.27
2018-08-22T02:01:57.669Z,11.28
2018-08-22T02:04:26.780Z,11.30
2018-08-22T02:06:55.763Z,11.32
2018-08-22T02:09:24.845Z,11.32
2018-08-22T02:11:53.987Z,11.35
2018-08-22T02:14:22.803Z,11.38
2018-08-22T02:16:51.733Z,11.42
2018-08-22T02:19:20.499Z,11.46
2018-08-22T02:21:50.231Z,11.50
2018-08-22T02:24:18.983Z,11.51
2018-08-22T02:26:48.539Z,11.53
2018-08-22T02:29:19.092Z,11.54
2018-08-22T02:31:47.869Z,11.55
2018-08-22T02:34:16.630Z,11.54
2018-08-22T02:36:45.993Z,11.54
2018-08-22T02:39:14.776Z,11.55
2018-08-22T02:41:43.543Z,11.56
2018-08-22T02:44:12.908Z,11.60
2018-08-22T02:46:41.675Z,11.65
2018-08-22T02:49:15.295Z,11.70
2018-08-22T02:51:44.440Z,11.76
2018-08-22T02:54:13.635Z,11.78
2018-08-22T02:56:42.956Z,11.81
2018-08-22T02:59:11.764Z,11.83
2018-08-22T03:01:40.553Z,11.83
2018-08-22T03:04:09.367Z,11.83
2018-08-22T03:06:38.114Z,11.85
2018-08-22T03:09:08.445Z,11.92
2018-08-22T03:11:37.371Z,12.00
2018-08-22T03:14:06.153Z,12.10
2018-08-22T03:16:34.903Z,12.21
2018-08-22T03:19:03.840Z,12.31
2018-08-22T03:21:33.355Z,12.41
2018-08-22T03:24:02.940Z,12.48
2018-08-22T03:26:32.515Z,12.55
2018-08-22T03:29:02.068Z,12.62
2018-08-22T03:31:31.631Z,12.64
2018-08-22T03:34:01.238Z,12.65
2018-08-22T03:36:30.686Z,12.64
2018-08-22T03:38:59.517Z,12.64
2018-08-22T03:41:28.609Z,12.61
2018-08-22T03:43:58.288Z,12.57
2018-08-22T03:46:27.493Z,12.60
2018-08-22T03:48:57.480Z,12.67
2018-08-22T03:51:27.388Z,12.70
2018-08-22T03:53:57.121Z,12.68
2018-08-22T03:56:27.708Z,12.66
2018-08-22T03:58:57.190Z,12.66
2018-08-22T04:01:26.279Z,12.68
2018-08-22T04:03:55.464Z,12.68
2018-08-22T04:06:24.962Z,12.66
2018-08-22T04:08:54.254Z,12.66
2018-08-22T04:11:23.263Z,12.65
2018-08-22T04:13:52.068Z,12.65
2018-08-22T04:16:21.281Z,12.67
2018-08-22T04:18:50.431Z,12.73
2018-08-22T04:21:19.889Z,12.81
2018-08-22T04:23:48.701Z,12.90
2018-08-22T04:26:17.519Z,12.97
2018-08-22T04:28:46.951Z,13.01
2018-08-22T04:31:16.296Z,13.06
2018-08-22T04:33:45.551Z,13.13
2018-08-22T04:36:15.019Z,13.18
2018-08-22T04:38:44.307Z,13.25
2018-08-22T04:41:13.197Z,13.32
2018-08-22T04:43:42.289Z,13.40
2018-08-22T04:46:11.721Z,13.45
2018-08-22T04:48:40.586Z,13.52
2018-08-22T04:51:10.206Z,13.58
2018-08-22T04:53:40.160Z,13.64
2018-08-22T04:56:09.630Z,13.67
2018-08-22T04:58:38.477Z,13.71
2018-08-22T05:01:07.362Z,13.78
2018-08-22T05:03:36.288Z,13.83
2018-08-22T05:06:05.231Z,13.91
2018-08-22T05:08:34.217Z,13.97
2018-08-22T05:11:03.132Z,14.01
2018-08-22T05:13:31.907Z,14.04
2018-08-22T05:16:00.722Z,14.12
2018-08-22T05:18:29.496Z,14.18
2018-08-22T05:20:59.103Z,14.28
2018-08-22T05:23:28.192Z,14.38
2018-08-22T05:25:57.287Z,14.46
2018-08-22T05:28:27.061Z,14.57
2018-08-22T05:30:56.712Z,14.69
2018-08-22T05:33:25.767Z,14.78
2018-08-22T05:35:55.339Z,14.90
2018-08-22T05:38:24.188Z,15.05
2018-08-22T05:40:53.118Z,15.22
2018-08-22T05:43:21.917Z,15.40
2018-08-22T05:45:51.389Z,15.55
2018-08-22T05:48:20.167Z,15.74
2018-08-22T05:50:49.661Z,15.93
2018-08-22T05:53:19.115Z,16.03
2018-08-22T05:55:48.629Z,16.11
2018-08-22T05:58:18.016Z,16.23
2018-08-22T06:00:46.848Z,16.37
2018-08-22T06:03:15.954Z,16.51
2018-08-22T06:05:45.611Z,16.69
2018-08-22T06:08:14.353Z,16.83
2018-08-22T06:10:43.100Z,16.96
2018-08-22T06:13:11.918Z,17.10
2018-08-22T06:15:40.695Z,17.11
2018-08-22T06:18:09.545Z,17.09
2018-08-22T06:20:38.695Z,17.22
2018-08-22T06:23:07.912Z,17.39
2018-08-22T06:25:36.741Z,17.49
2018-08-22T06:28:06.347Z,17.52
2018-08-22T06:30:35.494Z,17.54
2018-08-22T06:33:05.195Z,17.49
2018-08-22T06:35:34.803Z,17.46
2018-08-22T06:38:04.141Z,17.50
2018-08-22T06:40:32.972Z,17.52
2018-08-22T06:43:08.307Z,17.59
2018-08-22T06:45:37.676Z,17.69
2018-08-22T06:48:06.463Z,17.77
2018-08-22T06:50:36.035Z,17.90
2018-08-22T06:53:06.369Z,18.04
2018-08-22T06:55:35.784Z,18.19
2018-08-22T06:58:05.329Z,18.38
2018-08-22T07:00:34.179Z,18.52
2018-08-22T07:03:02.951Z,18.59
2018-08-22T07:05:31.746Z,18.64
2018-08-22T07:08:00.688Z,18.69
2018-08-22T07:10:29.560Z,18.79
2018-08-22T07:12:58.486Z,18.93
2018-08-22T07:15:27.405Z,18.98
2018-08-22T07:17:56.483Z,19.10
2018-08-22T07:20:25.548Z,19.23
2018-08-22T07:22:54.458Z,19.40
2018-08-22T07:25:23.271Z,19.53
2018-08-22T07:27:52.803Z,19.57
2018-08-22T07:30:22.164Z,19.66
2018-08-22T07:32:51.532Z,19.82
2018-08-22T07:35:20.915Z,19.93
2018-08-22T07:37:49.677Z,19.99
2018-08-22T07:40:18.421Z,20.12
2018-08-22T07:42:47.202Z,20.23
2018-08-22T07:45:17.223Z,20.36
2018-08-22T07:47:45.994Z,20.48
2018-08-22T07:50:15.489Z,20.51
2018-08-22T07:53:05.203Z,20.53
2018-08-22T07:55:37.896Z,20.52
2018-08-22T07:58:07.392Z,20.52
2018-08-22T08:00:36.244Z,20.51
2018-08-22T08:03:05.097Z,20.49
2018-08-22T08:05:33.995Z,20.50
2018-08-22T08:08:02.768Z,20.55
2018-08-22T08:10:32.380Z,20.52
2018-08-22T08:13:01.583Z,20.58
2018-08-22T08:15:30.315Z,20.62
2018-08-22T08:17:59.356Z,20.55
2018-08-22T08:20:28.192Z,20.57
2018-08-22T08:22:57.344Z,20.60
2018-08-22T08:25:26.331Z,20.69
2018-08-22T08:27:55.794Z,20.80
2018-08-22T08:30:25.210Z,20.85
2018-08-22T08:32:54.665Z,20.93
2018-08-22T08:35:24.757Z,21.01
2018-08-22T08:37:53.523Z,21.17
2018-08-22T08:40:22.261Z,21.36
2018-08-22T08:42:51.182Z,21.55
2018-08-22T08:45:20.505Z,21.61
2018-08-22T08:47:49.684Z,21.57
2018-08-22T08:50:19.277Z,21.60
2018-08-22T08:52:49.251Z,21.62
2018-08-22T08:55:18.631Z,21.66
2018-08-22T08:57:48.163Z,21.65
2018-08-22T09:00:16.908Z,21.64
2018-08-22T09:02:45.696Z,21.62
2018-08-22T09:05:14.571Z,21.52
2018-08-22T09:07:43.391Z,21.24
2018-08-22T09:10:12.309Z,21.05
2018-08-22T09:12:41.203Z,20.83
2018-08-22T09:15:09.965Z,20.73
2018-08-22T09:17:38.704Z,20.68
2018-08-22T09:20:08.308Z,20.72
2018-08-22T09:22:37.174Z,20.71
2018-08-22T09:25:06.013Z,20.75
2018-08-22T09:27:35.565Z,20.79
2018-08-22T09:30:05.014Z,20.88
2018-08-22T09:32:34.221Z,20.97
2018-08-22T09:35:03.480Z,20.98
2018-08-22T09:37:32.293Z,20.94
2018-08-22T09:40:01.203Z,20.86
2018-08-22T09:42:30.023Z,20.75
2018-08-22T09:44:59.611Z,20.65
2018-08-22T09:47:28.412Z,20.57
2018-08-22T09:49:58.160Z,20.38
2018-08-22T09:52:27.833Z,20.22
2018-08-22T09:55:01.572Z,20.17
2018-08-22T09:57:31.543Z,20.19
2018-08-22T10:00:00.427Z,20.32
2018-08-22T10:02:29.167Z,20.49
2018-08-22T10:04:59.750Z,20.68
2018-08-22T10:07:28.683Z,20.86
2018-08-22T10:09:58.204Z,21.09
2018-08-22T10:12:27.265Z,21.22
2018-08-22T10:14:56.903Z,21.43
2018-08-22T10:17:26.008Z,21.65
2018-08-22T10:19:55.327Z,21.85
2018-08-22T10:22:24.492Z,21.99
2018-08-22T10:24:53.331Z,22.18
2018-08-22T10:27:23.020Z,22.23
2018-08-22T10:29:52.946Z,22.28
2018-08-22T10:32:22.611Z,22.33
2018-08-22T10:34:52.152Z,22.40
2018-08-22T10:37:20.908Z,22.48
2018-08-22T10:39:49.697Z,22.51
2018-08-22T10:42:18.463Z,22.67
2018-08-22T10:44:47.975Z,22.68
2018-08-22T10:47:16.704Z,22.74
2018-08-22T10:49:45.463Z,22.79
2018-08-22T10:52:14.962Z,22.91
2018-08-22T10:54:44.249Z,22.98
2018-08-22T10:57:13.424Z,23.13
2018-08-22T10:59:42.167Z,23.16
2018-08-22T11:02:10.917Z,23.17
2018-08-22T11:04:39.684Z,23.16
2018-08-22T11:07:08.801Z,23.14
2018-08-22T11:09:37.690Z,23.13
2018-08-22T11:12:06.484Z,23.22
2018-08-22T11:14:35.219Z,23.34
2018-08-22T11:17:04.113Z,23.36
2018-08-22T11:19:32.973Z,23.41
2018-08-22T11:22:13.130Z,23.43
2018-08-22T11:24:52.879Z,23.49
2018-08-22T11:27:33.719Z,23.56
2018-08-22T11:30:14.019Z,23.65
2018-08-22T11:32:54.553Z,23.74
2018-08-22T11:35:22.540Z,23.84
2018-08-22T11:37:51.279Z,23.94
2018-08-22T11:40:20.035Z,24.08
2018-08-22T11:42:48.880Z,24.12
2018-08-22T11:45:18.613Z,24.20
2018-08-22T11:47:47.364Z,24.21
2018-08-22T11:50:16.615Z,24.21
2018-08-22T11:52:46.352Z,24.25
2018-08-22T11:55:15.991Z,24.27
2018-08-22T11:57:45.360Z,24.31
2018-08-22T12:00:14.162Z,24.32
2018-08-22T12:02:42.961Z,24.32
2018-08-22T12:05:11.727Z,24.39
2018-08-22T12:07:40.540Z,24.45
2018-08-22T12:10:09.395Z,24.57
2018-08-22T12:12:38.290Z,24.58
2018-08-22T12:15:07.071Z,24.59
2018-08-22T12:17:35.904Z,24.59
2018-08-22T12:20:04.902Z,24.66
2018-08-22T12:22:34.063Z,24.73
2018-08-22T12:25:02.807Z,24.81
2018-08-22T12:27:32.509Z,24.87
2018-08-22T12:30:01.827Z,25.02
2018-08-22T12:32:31.185Z,25.09
2018-08-22T12:35:00.447Z,25.18
2018-08-22T12:37:29.439Z,25.32
2018-08-22T12:39:58.228Z,25.50
2018-08-22T12:42:27.569Z,25.61
2018-08-22T12:44:57.639Z,25.64
2018-08-22T12:47:27.023Z,25.67
2018-08-22T12:49:57.098Z,25.66
2018-08-22T12:52:26.893Z,25.56
2018-08-22T12:54:56.268Z,25.40
2018-08-22T12:57:26.262Z,25.23
2018-08-22T12:59:55.054Z,25.06
2018-08-22T13:02:23.850Z,24.84
2018-08-22T13:04:52.607Z,24.69
2018-08-22T13:07:21.312Z,24.66
2018-08-22T13:09:50.156Z,24.67
2018-08-22T13:12:19.712Z,24.67
2018-08-22T13:14:48.446Z,24.75
2018-08-22T13:17:17.336Z,24.82
2018-08-22T13:19:46.124Z,24.92
2018-08-22T13:22:14.917Z,25.05
2018-08-22T13:24:45.069Z,25.10
2018-08-22T13:27:14.976Z,25.18
2018-08-22T13:29:44.368Z,25.24
2018-08-22T13:32:13.144Z,25.28
2018-08-22T13:34:42.427Z,25.20
2018-08-22T13:37:11.214Z,25.13
2018-08-22T13:39:40.049Z,25.08
2018-08-22T13:42:08.902Z,24.97
2018-08-22T13:44:38.552Z,24.82
2018-08-22T13:47:07.311Z,24.76
2018-08-22T13:49:36.081Z,24.73
2018-08-22T13:52:05.801Z,24.68
2018-08-22T13:54:35.409Z,24.67
2018-08-22T13:57:04.851Z,24.67
2018-08-22T13:59:33.590Z,24.72
2018-08-22T14:02:02.338Z,24.69
2018-08-22T14:04:31.483Z,24.69
2018-08-22T14:07:00.259Z,24.68
2018-08-22T14:09:29.203Z,24.67
2018-08-22T14:11:58.183Z,24.72
2018-08-22T14:14:28.367Z,24.71
2018-08-22T14:16:57.939Z,24.74
2018-08-22T14:19:27.171Z,24.74
2018-08-22T14:21:56.450Z,24.77
2018-08-22T14:24:25.757Z,24.78
2018-08-22T14:26:55.739Z,24.80
2018-08-22T14:29:25.472Z,24.81
2018-08-22T14:31:54.217Z,24.80
2018-08-22T14:34:23.091Z,24.79
2018-08-22T14:36:52.507Z,24.73
2018-08-22T14:39:21.357Z,24.71
2018-08-22T14:41:50.134Z,24.66
2018-08-22T14:44:19.505Z,24.67
2018-08-22T14:46:48.268Z,24.73
2018-08-22T14:49:17.034Z,24.86
2018-08-22T14:51:46.543Z,25.01
2018-08-22T14:54:15.905Z,25.09
2018-08-22T14:56:45.244Z,25.12
2018-08-22T14:59:14.032Z,25.09
2018-08-22T15:01:42.818Z,25.12
2018-08-22T15:04:11.610Z,25.11
2018-08-22T15:06:41.486Z,25.02
2018-08-22T15:09:18.325Z,24.94
2018-08-22T15:11:47.829Z,24.86
2018-08-22T15:14:17.283Z,24.77
2018-08-22T15:16:46.046Z,24.78
2018-08-22T15:19:14.886Z,24.80
2018-08-22T15:21:43.809Z,24.83
2018-08-22T15:24:12.554Z,24.87
2018-08-22T15:26:42.048Z,24.88
2018-08-22T15:29:11.240Z,24.86
2018-08-22T15:31:41.395Z,24.78
2018-08-22T15:34:10.219Z,24.68
2018-08-22T15:36:39.540Z,24.59
2018-08-22T15:39:09.934Z,24.60
2018-08-22T15:41:39.778Z,24.57
2018-08-22T15:44:09.074Z,24.57
2018-08-22T15:46:37.861Z,24.61
2018-08-22T15:49:06.653Z,24.62
2018-08-22T15:51:35.828Z,24.61
2018-08-22T15:54:16.069Z,24.54
2018-08-22T15:56:45.480Z,24.48
2018-08-22T15:59:14.480Z,24.43
2018-08-22T16:01:43.321Z,24.42
2018-08-22T16:04:12.149Z,24.39
2018-08-22T16:06:41.009Z,24.35
2018-08-22T16:09:21.118Z,24.37
2018-08-22T16:11:50.123Z,24.43
2018-08-22T16:14:19.486Z,24.48
2018-08-22T16:16:48.223Z,24.58
2018-08-22T16:19:17.042Z,24.68
2018-08-22T16:21:45.939Z,24.99
2018-08-22T16:24:14.753Z,25.05
2018-08-22T16:26:43.943Z,24.92
2018-08-22T16:29:13.229Z,24.74
2018-08-22T16:31:46.183Z,24.56
2018-08-22T16:34:15.734Z,24.34
2018-08-22T16:36:45.007Z,24.18
2018-08-22T16:39:13.756Z,24.06
2018-08-22T16:41:42.491Z,23.98
2018-08-22T16:44:11.786Z,23.90
2018-08-22T16:46:40.529Z,23.84
2018-08-22T16:49:09.283Z,23.77
2018-08-22T16:51:38.599Z,23.70
2018-08-22T16:54:09.476Z,23.62
2018-08-22T16:56:38.828Z,23.55
2018-08-22T16:59:09.387Z,23.53
2018-08-22T17:01:39.547Z,23.49
2018-08-22T17:04:08.403Z,23.43
2018-08-22T17:07:13.049Z,23.39
2018-08-22T17:09:42.056Z,23.32
2018-08-22T17:12:10.788Z,23.29
2018-08-22T17:14:40.427Z,23.28
2018-08-22T17:17:09.188Z,23.23
2018-08-22T17:19:37.971Z,23.21
2018-08-22T17:22:07.210Z,23.22
2018-08-22T17:24:35.943Z,23.21
2018-08-22T17:27:05.364Z,23.18
2018-08-22T17:29:34.718Z,23.15
2018-08-22T17:32:05.270Z,23.10
2018-08-22T17:34:34.933Z,23.07
2018-08-22T17:37:09.041Z,23.07
2018-08-22T17:39:37.843Z,23.04
2018-08-22T17:42:06.869Z,23.02
2018-08-22T17:44:36.360Z,22.97
2018-08-22T17:47:05.199Z,22.92
2018-08-22T17:49:33.938Z,22.87
2018-08-22T17:52:08.200Z,22.80
2018-08-22T17:54:37.943Z,22.72
2018-08-22T17:57:16.579Z,22.64
2018-08-22T17:59:45.697Z,22.60
2018-08-22T18:02:14.550Z,22.56
2018-08-22T18:05:03.028Z,22.52
2018-08-22T18:08:34.630Z,22.48
2018-08-22T18:11:03.426Z,22.45
2018-08-22T18:13:32.843Z,22.42
2018-08-22T18:16:01.981Z,22.38
2018-08-22T18:18:30.724Z,22.37
2018-08-22T18:21:00.747Z,22.35
2018-08-22T18:23:31.051Z,22.34
2018-08-22T18:26:03.585Z,22.33
2018-08-22T18:28:33.049Z,22.31
2018-08-22T18:31:03.003Z,22.28
2018-08-22T18:33:31.820Z,22.25
2018-08-22T18:36:01.056Z,22.23
2018-08-22T18:38:29.804Z,22.22
2018-08-22T18:41:07.637Z,22.22
2018-08-22T18:43:36.983Z,22.22
2018-08-22T18:46:08.877Z,22.21
2018-08-22T18:48:37.651Z,22.20
2018-08-22T18:51:07.213Z,22.18
2018-08-22T18:53:36.527Z,22.19
2018-08-22T18:56:12.261Z,22.18
2018-08-22T18:58:41.071Z,22.15
2018-08-22T19:01:09.856Z,22.15
2018-08-22T19:03:38.629Z,22.15
2018-08-22T19:06:07.736Z,22.13
2018-08-22T19:08:37.348Z,22.12
2018-08-22T19:11:06.442Z,22.12
2018-08-22T19:13:35.896Z,22.11
2018-08-22T19:16:06.232Z,22.11
2018-08-22T19:18:35.043Z,22.08
2018-08-22T19:21:05.241Z,22.08
2018-08-22T19:23:34.496Z,22.06
2018-08-22T19:26:04.819Z,22.03
2018-08-22T19:28:50.612Z,22.03
2018-08-22T19:31:19.967Z,21.97
2018-08-22T19:33:49.207Z,21.93
2018-08-22T19:36:18.631Z,21.91
2018-08-22T19:38:47.362Z,21.86
2018-08-22T19:41:32.290Z,21.81
2018-08-22T19:44:01.718Z,21.76
2018-08-22T19:46:30.471Z,21.73
2018-08-22T19:49:00.636Z,21.67
2018-08-22T19:51:30.096Z,21.66
2018-08-22T19:54:03.645Z,21.62
2018-08-22T19:56:33.305Z,21.63
2018-08-22T19:59:02.520Z,21.62
2018-08-22T20:01:32.130Z,21.60
2018-08-22T20:04:00.941Z,21.61
2018-08-22T20:06:29.747Z,21.61
2018-08-22T20:08:59.772Z,21.62
2018-08-22T20:11:29.067Z,21.61
2018-08-22T20:14:00.658Z,21.61
2018-08-22T20:16:29.499Z,21.60
2018-08-22T20:18:59.576Z,21.61
2018-08-22T20:21:31.814Z,21.60
2018-08-22T20:24:01.861Z,21.60
2018-08-22T20:26:31.347Z,21.59
2018-08-22T20:29:01.902Z,21.57
2018-08-22T20:31:31.702Z,21.56
2018-08-22T20:34:16.056Z,21.54
2018-08-22T20:36:46.943Z,21.56
2018-08-22T20:39:15.775Z,21.54
2018-08-22T20:41:44.977Z,21.53
2018-08-22T20:44:17.670Z,21.49
2018-08-22T20:46:47.471Z,21.47
2018-08-22T20:49:18.183Z,21.42
2018-08-22T20:51:49.661Z,21.38
2018-08-22T20:54:22.360Z,21.36
2018-08-22T20:56:56.908Z,21.33
2018-08-22T20:59:26.039Z,21.27
2018-08-22T21:02:00.102Z,21.22
2018-08-22T21:04:29.807Z,21.16
2018-08-22T21:06:58.995Z,21.07
2018-08-22T21:09:28.148Z,20.99
2018-08-22T21:11:58.303Z,20.89
2018-08-22T21:14:29.666Z,20.83
2018-08-22T21:16:58.507Z,20.78
2018-08-22T21:19:27.663Z,20.73
2018-08-22T21:21:57.271Z,20.66
2018-08-22T21:24:26.310Z,20.60
2018-08-22T21:26:55.916Z,20.54
2018-08-22T21:29:25.698Z,20.50
2018-08-22T21:31:54.563Z,20.46
2018-08-22T21:34:24.295Z,20.38
2018-08-22T21:36:53.935Z,20.33
2018-08-22T21:39:27.764Z,20.28
2018-08-22T21:41:57.073Z,20.24
2018-08-22T21:44:27.700Z,20.21
2018-08-22T21:47:01.468Z,20.15
2018-08-22T21:49:30.678Z,20.10
2018-08-22T21:52:01.790Z,20.07
2018-08-22T21:54:31.232Z,20.02
2018-08-22T21:57:00.625Z,19.99
2018-08-22T21:59:29.547Z,19.96
2018-08-22T22:02:03.874Z,19.94
2018-08-22T22:04:32.720Z,19.93
2018-08-22T22:07:01.977Z,19.92
2018-08-22T22:09:30.808Z,19.92
2018-08-22T22:12:00.688Z,19.93
2018-08-22T22:14:32.221Z,19.93
2018-08-22T22:17:02.008Z,19.90
2018-08-22T22:19:32.029Z,19.86
2018-08-22T22:22:02.484Z,19.83
2018-08-22T22:24:31.344Z,19.82
2018-08-22T22:27:00.987Z,19.76
2018-08-22T22:29:31.816Z,19.73
2018-08-22T22:32:00.556Z,19.69
2018-08-22T22:34:29.571Z,19.64
2018-08-22T22:37:01.967Z,19.58
2018-08-22T22:39:38.230Z,19.53
2018-08-22T22:42:27.735Z,19.48
2018-08-22T22:44:59.208Z,19.42
2018-08-22T22:47:32.143Z,19.40
2018-08-22T22:50:01.857Z,19.39
2018-08-22T22:52:45.649Z,19.36
2018-08-22T22:55:15.332Z,19.32
2018-08-22T22:57:45.216Z,19.29
2018-08-22T23:00:18.157Z,19.26
2018-08-22T23:02:51.039Z,19.23
2018-08-22T23:05:19.935Z,19.21
2018-08-22T23:07:48.817Z,19.18
2018-08-22T23:10:17.560Z,19.15
2018-08-22T23:12:47.731Z,19.10
2018-08-22T23:15:21.344Z,19.06
2018-08-22T23:17:51.819Z,19.03
2018-08-22T23:20:46.307Z,18.98
2018-08-22T23:23:36.577Z,18.94
2018-08-22T23:26:18.934Z,18.90
2018-08-22T23:28:48.324Z,18.88
2018-08-22T23:31:19.643Z,18.83
2018-08-22T23:33:48.409Z,18.80
2018-08-22T23:36:17.845Z,18.75
2018-08-22T23:38:46.535Z,18.72
2018-08-22T23:41:15.490Z,18.69
2018-08-22T23:43:50.899Z,18.63
2018-08-22T23:46:19.816Z,18.62
2018-08-22T23:48:57.511Z,18.57
2018-08-22T23:51:27.242Z,18.53
2018-08-22T23:53:59.513Z,18.50
2018-08-22T23:56:30.132Z,18.49
2018-08-22T23:58:59.746Z,18.45
